sensor_id;sensor_type;location;lat;lon;timestamp;pressure;altitude;pressure_sealevel;temperature;humidity
72558;BME280;60583;50.094;8.748;2023-06-22T00:00:57;100331.69;;;23.09;68.87
72558;BME280;60583;50.094;8.748;2023-06-22T00:03:24;100342.91;;;23.02;68.80
72558;BME280;60583;50.094;8.748;2023-06-22T00:05:50;100364.34;;;23.09;68.47
72558;BME280;60583;50.094;8.748;2023-06-22T00:08:17;100382.34;;;23.00;68.90
72558;BME280;60583;50.094;8.748;2023-06-22T00:10:42;100417.41;;;23.06;69.23
72558;BME280;60583;50.094;8.748;2023-06-22T00:13:09;100445.94;;;23.14;68.85
72558;BME280;60583;50.094;8.748;2023-06-22T00:15:35;100462.31;;;23.04;68.33
72558;BME280;60583;50.094;8.748;2023-06-22T00:18:01;100481.03;;;23.20;68.26
72558;BME280;60583;50.094;8.748;2023-06-22T00:20:27;100490.00;;;23.26;68.35
72558;BME280;60583;50.094;8.748;2023-06-22T00:22:57;100503.81;;;23.39;68.15
72558;BME280;60583;50.094;8.748;2023-06-22T00:25:23;100504.94;;;23.33;69.13
72558;BME280;60583;50.094;8.748;2023-06-22T00:27:49;100510.63;;;23.37;69.45
72558;BME280;60583;50.094;8.748;2023-06-22T00:30:15;100510.38;;;23.33;69.43
72558;BME280;60583;50.094;8.748;2023-06-22T00:32:41;100503.00;;;23.29;69.68
72558;BME280;60583;50.094;8.748;2023-06-22T00:35:07;100531.34;;;23.38;69.91
72558;BME280;60583;50.094;8.748;2023-06-22T00:37:32;100533.75;;;23.34;70.46
72558;BME280;60583;50.094;8.748;2023-06-22T00:39:58;100532.41;;;23.32;70.18
72558;BME280;60583;50.094;8.748;2023-06-22T00:42:24;100534.09;;;23.23;70.28
72558;BME280;60583;50.094;8.748;2023-06-22T00:44:49;100552.03;;;23.24;70.05
72558;BME280;60583;50.094;8.748;2023-06-22T00:47:17;100579.78;;;23.31;70.05
72558;BME280;60583;50.094;8.748;2023-06-22T00:49:43;100590.69;;;23.31;69.31
72558;BME280;60583;50.094;8.748;2023-06-22T00:52:10;100586.88;;;23.22;69.72
72558;BME280;60583;50.094;8.748;2023-06-22T00:54:40;100578.16;;;23.30;70.02
72558;BME280;60583;50.094;8.748;2023-06-22T00:57:09;100597.47;;;23.33;69.42
72558;BME280;60583;50.094;8.748;2023-06-22T00:59:37;100598.56;;;23.32;69.56
72558;BME280;60583;50.094;8.748;2023-06-22T01:02:02;100597.72;;;23.32;69.63
72558;BME280;60583;50.094;8.748;2023-06-22T01:04:34;100607.28;;;23.24;70.49
72558;BME280;60583;50.094;8.748;2023-06-22T01:07:34;100608.66;;;23.22;70.01
72558;BME280;60583;50.094;8.748;2023-06-22T01:10:16;100589.63;;;23.07;69.76
72558;BME280;60583;50.094;8.748;2023-06-22T01:12:47;100610.88;;;23.00;69.87
72558;BME280;60583;50.094;8.748;2023-06-22T01:15:18;100639.75;;;22.96;70.21
72558;BME280;60583;50.094;8.748;2023-06-22T01:17:48;100675.34;;;23.09;69.93
72558;BME280;60583;50.094;8.748;2023-06-22T01:20:15;100699.59;;;23.16;70.53
72558;BME280;60583;50.094;8.748;2023-06-22T01:22:55;100715.91;;;23.16;71.73
72558;BME280;60583;50.094;8.748;2023-06-22T01:25:36;100737.69;;;22.91;73.78
72558;BME280;60583;50.094;8.748;2023-06-22T01:30:42;100737.78;;;22.29;78.57
72558;BME280;60583;50.094;8.748;2023-06-22T01:33:11;100726.91;;;22.34;78.61
72558;BME280;60583;50.094;8.748;2023-06-22T01:35:38;100666.06;;;22.40;78.49
72558;BME280;60583;50.094;8.748;2023-06-22T01:38:05;100536.09;;;21.86;80.04
72558;BME280;60583;50.094;8.748;2023-06-22T01:40:32;100439.66;;;21.63;82.17
72558;BME280;60583;50.094;8.748;2023-06-22T01:43:01;100416.28;;;21.62;81.89
72558;BME280;60583;50.094;8.748;2023-06-22T01:45:27;100432.59;;;21.83;82.53
72558;BME280;60583;50.094;8.748;2023-06-22T01:47:54;100409.00;;;21.88;83.20
72558;BME280;60583;50.094;8.748;2023-06-22T01:50:19;100411.44;;;21.85;84.07
72558;BME280;60583;50.094;8.748;2023-06-22T01:52:45;100434.78;;;21.81;84.24
72558;BME280;60583;50.094;8.748;2023-06-22T01:55:10;100468.50;;;21.90;84.70
72558;BME280;60583;50.094;8.748;2023-06-22T01:57:36;100478.50;;;21.79;85.99
72558;BME280;60583;50.094;8.748;2023-06-22T02:00:04;100507.59;;;21.89;85.64
72558;BME280;60583;50.094;8.748;2023-06-22T02:03:21;100523.34;;;21.92;85.74
72558;BME280;60583;50.094;8.748;2023-06-22T02:05:30;100490.41;;;21.73;86.71
72558;BME280;60583;50.094;8.748;2023-06-22T02:08:02;100528.25;;;22.00;86.42
72558;BME280;60583;50.094;8.748;2023-06-22T02:10:32;100511.94;;;21.95;86.94
72558;BME280;60583;50.094;8.748;2023-06-22T02:13:01;100517.38;;;21.95;87.32
72558;BME280;60583;50.094;8.748;2023-06-22T02:15:28;100513.56;;;21.96;86.85
72558;BME280;60583;50.094;8.748;2023-06-22T02:17:55;100509.75;;;21.87;87.09
72558;BME280;60583;50.094;8.748;2023-06-22T02:20:20;100508.66;;;21.88;87.02
72558;BME280;60583;50.094;8.748;2023-06-22T02:22:46;100509.19;;;21.80;86.38
72558;BME280;60583;50.094;8.748;2023-06-22T02:25:11;100495.59;;;21.75;85.42
72558;BME280;60583;50.094;8.748;2023-06-22T02:27:36;100490.16;;;21.65;85.61
72558;BME280;60583;50.094;8.748;2023-06-22T02:30:07;100474.63;;;21.55;86.02
72558;BME280;60583;50.094;8.748;2023-06-22T02:32:34;100496.66;;;21.58;85.76
72558;BME280;60583;50.094;8.748;2023-06-22T02:35:00;100508.59;;;21.73;85.46
72558;BME280;60583;50.094;8.748;2023-06-22T02:37:29;100494.50;;;21.71;86.11
72558;BME280;60583;50.094;8.748;2023-06-22T02:39:55;100505.63;;;21.74;86.69
72558;BME280;60583;50.094;8.748;2023-06-22T02:42:20;100506.72;;;21.83;86.91
72558;BME280;60583;50.094;8.748;2023-06-22T02:44:47;100501.59;;;21.82;87.69
72558;BME280;60583;50.094;8.748;2023-06-22T02:47:12;100516.78;;;21.83;85.67
72558;BME280;60583;50.094;8.748;2023-06-22T02:49:38;100497.75;;;21.68;85.34
72558;BME280;60583;50.094;8.748;2023-06-22T02:52:04;100502.06;;;21.58;86.31
72558;BME280;60583;50.094;8.748;2023-06-22T02:54:29;100491.75;;;21.60;85.29
72558;BME280;60583;50.094;8.748;2023-06-22T02:56:55;100512.41;;;21.67;85.98
72558;BME280;60583;50.094;8.748;2023-06-22T02:59:20;100520.53;;;21.56;87.84
72558;BME280;60583;50.094;8.748;2023-06-22T03:01:51;100482.44;;;21.26;88.67
72558;BME280;60583;50.094;8.748;2023-06-22T03:04:17;100498.50;;;21.43;89.08
72558;BME280;60583;50.094;8.748;2023-06-22T03:06:43;100477.31;;;21.40;88.00
72558;BME280;60583;50.094;8.748;2023-06-22T03:09:08;100481.41;;;21.52;87.21
72558;BME280;60583;50.094;8.748;2023-06-22T03:11:34;100459.66;;;21.32;86.83
72558;BME280;60583;50.094;8.748;2023-06-22T03:14:01;100477.56;;;21.28;87.07
72558;BME280;60583;50.094;8.748;2023-06-22T03:16:27;100460.72;;;21.21;87.59
72558;BME280;60583;50.094;8.748;2023-06-22T03:18:53;100465.88;;;21.23;87.71
72558;BME280;60583;50.094;8.748;2023-06-22T03:21:19;100469.72;;;21.27;87.44
72558;BME280;60583;50.094;8.748;2023-06-22T03:23:45;100483.28;;;21.32;87.04
72558;BME280;60583;50.094;8.748;2023-06-22T03:26:10;100495.72;;;21.28;87.13
72558;BME280;60583;50.094;8.748;2023-06-22T03:28:37;100488.41;;;21.28;86.71
72558;BME280;60583;50.094;8.748;2023-06-22T03:31:03;100453.63;;;21.15;87.89
72558;BME280;60583;50.094;8.748;2023-06-22T03:33:28;100485.47;;;21.40;87.14
72558;BME280;60583;50.094;8.748;2023-06-22T03:35:54;100476.75;;;21.33;86.55
72558;BME280;60583;50.094;8.748;2023-06-22T03:38:20;100481.28;;;21.12;86.43
72558;BME280;60583;50.094;8.748;2023-06-22T03:40:45;100489.09;;;21.04;86.14
72558;BME280;60583;50.094;8.748;2023-06-22T03:43:11;100492.69;;;21.09;85.54
72558;BME280;60583;50.094;8.748;2023-06-22T03:45:36;100483.34;;;20.90;86.31
72558;BME280;60583;50.094;8.748;2023-06-22T03:48:02;100486.72;;;21.12;85.81
72558;BME280;60583;50.094;8.748;2023-06-22T03:50:28;100480.63;;;20.90;86.09
72558;BME280;60583;50.094;8.748;2023-06-22T03:52:53;100475.75;;;20.92;86.68
72558;BME280;60583;50.094;8.748;2023-06-22T03:55:19;100485.00;;;20.96;86.49
72558;BME280;60583;50.094;8.748;2023-06-22T03:57:45;100486.59;;;20.92;87.39
72558;BME280;60583;50.094;8.748;2023-06-22T04:00:11;100487.78;;;21.06;86.55
72558;BME280;60583;50.094;8.748;2023-06-22T04:02:37;100498.66;;;21.06;86.71
72558;BME280;60583;50.094;8.748;2023-06-22T04:05:02;100488.63;;;21.12;86.76
72558;BME280;60583;50.094;8.748;2023-06-22T04:07:28;100466.66;;;21.13;86.20
72558;BME280;60583;50.094;8.748;2023-06-22T04:09:53;100472.94;;;21.19;85.40
72558;BME280;60583;50.094;8.748;2023-06-22T04:12:18;100482.72;;;21.30;85.49
72558;BME280;60583;50.094;8.748;2023-06-22T04:14:44;100481.31;;;21.22;86.31
72558;BME280;60583;50.094;8.748;2023-06-22T04:17:09;100493.84;;;21.33;85.99
72558;BME280;60583;50.094;8.748;2023-06-22T04:19:35;100496.88;;;21.37;85.90
72558;BME280;60583;50.094;8.748;2023-06-22T04:22:00;100484.34;;;21.26;86.59
72558;BME280;60583;50.094;8.748;2023-06-22T04:24:25;100490.06;;;21.34;86.29
72558;BME280;60583;50.094;8.748;2023-06-22T04:26:51;100475.41;;;21.30;85.65
72558;BME280;60583;50.094;8.748;2023-06-22T04:29:20;100481.91;;;21.29;86.26
72558;BME280;60583;50.094;8.748;2023-06-22T04:31:45;100479.16;;;21.19;86.73
72558;BME280;60583;50.094;8.748;2023-06-22T04:34:16;100480.97;;;21.04;87.63
72558;BME280;60583;50.094;8.748;2023-06-22T04:36:42;100491.38;;;21.17;87.44
72558;BME280;60583;50.094;8.748;2023-06-22T04:39:11;100502.75;;;21.19;87.69
72558;BME280;60583;50.094;8.748;2023-06-22T04:41:40;100495.88;;;21.01;88.50
72558;BME280;60583;50.094;8.748;2023-06-22T04:44:13;100487.28;;;21.09;87.44
72558;BME280;60583;50.094;8.748;2023-06-22T04:46:39;100497.91;;;21.26;87.54
72558;BME280;60583;50.094;8.748;2023-06-22T04:49:09;100496.84;;;21.27;88.02
72558;BME280;60583;50.094;8.748;2023-06-22T04:51:39;100469.13;;;21.20;87.71
72558;BME280;60583;50.094;8.748;2023-06-22T04:54:05;100482.47;;;21.36;88.25
72558;BME280;60583;50.094;8.748;2023-06-22T04:56:32;100480.34;;;21.48;87.17
72558;BME280;60583;50.094;8.748;2023-06-22T04:58:57;100466.22;;;21.41;86.88
72558;BME280;60583;50.094;8.748;2023-06-22T05:01:23;100468.94;;;21.46;87.19
72558;BME280;60583;50.094;8.748;2023-06-22T05:03:49;100463.25;;;21.53;86.44
72558;BME280;60583;50.094;8.748;2023-06-22T05:06:15;100452.91;;;21.50;87.15
72558;BME280;60583;50.094;8.748;2023-06-22T05:08:40;100483.38;;;21.67;88.29
72558;BME280;60583;50.094;8.748;2023-06-22T05:11:06;100486.88;;;21.62;88.76
72558;BME280;60583;50.094;8.748;2023-06-22T05:13:32;100483.63;;;21.60;89.14
72558;BME280;60583;50.094;8.748;2023-06-22T05:15:57;100479.31;;;21.70;87.54
72558;BME280;60583;50.094;8.748;2023-06-22T05:18:30;100475.75;;;21.64;88.19
72558;BME280;60583;50.094;8.748;2023-06-22T05:20:56;100477.13;;;21.77;88.79
72558;BME280;60583;50.094;8.748;2023-06-22T05:23:21;100482.03;;;21.80;88.25
72558;BME280;60583;50.094;8.748;2023-06-22T05:25:47;100481.47;;;21.78;88.39
72558;BME280;60583;50.094;8.748;2023-06-22T05:28:12;100466.25;;;21.67;86.81
72558;BME280;60583;50.094;8.748;2023-06-22T05:30:38;100479.31;;;21.85;86.98
72558;BME280;60583;50.094;8.748;2023-06-22T05:33:03;100472.81;;;21.86;87.04
72558;BME280;60583;50.094;8.748;2023-06-22T05:35:29;100396.19;;;21.33;87.61
72558;BME280;60583;50.094;8.748;2023-06-22T05:37:55;100472.28;;;21.94;87.05
72558;BME280;60583;50.094;8.748;2023-06-22T05:40:20;100464.13;;;21.94;86.69
72558;BME280;60583;50.094;8.748;2023-06-22T05:42:46;100475.81;;;22.19;86.42
72558;BME280;60583;50.094;8.748;2023-06-22T05:45:12;100450.25;;;22.20;85.79
72558;BME280;60583;50.094;8.748;2023-06-22T05:47:37;100466.28;;;22.37;85.72
72558;BME280;60583;50.094;8.748;2023-06-22T05:50:04;100445.09;;;22.39;85.16
72558;BME280;60583;50.094;8.748;2023-06-22T05:52:32;100461.09;;;22.51;84.22
72558;BME280;60583;50.094;8.748;2023-06-22T05:54:58;100463.28;;;22.39;83.43
72558;BME280;60583;50.094;8.748;2023-06-22T05:57:23;100450.81;;;22.38;83.40
72558;BME280;60583;50.094;8.748;2023-06-22T05:59:49;100436.63;;;22.46;82.57
72558;BME280;60583;50.094;8.748;2023-06-22T06:02:14;100466.78;;;22.69;81.97
72558;BME280;60583;50.094;8.748;2023-06-22T06:04:40;100464.06;;;22.74;81.37
72558;BME280;60583;50.094;8.748;2023-06-22T06:07:05;100456.72;;;22.75;81.41
72558;BME280;60583;50.094;8.748;2023-06-22T06:09:30;100463.22;;;22.79;81.01
72558;BME280;60583;50.094;8.748;2023-06-22T06:11:56;100467.28;;;22.81;81.15
72558;BME280;60583;50.094;8.748;2023-06-22T06:14:21;100446.38;;;22.77;80.87
72558;BME280;60583;50.094;8.748;2023-06-22T06:16:48;100456.88;;;22.99;80.78
72558;BME280;60583;50.094;8.748;2023-06-22T06:19:14;100461.63;;;23.32;80.14
72558;BME280;60583;50.094;8.748;2023-06-22T06:21:39;100456.69;;;23.44;80.18
72558;BME280;60583;50.094;8.748;2023-06-22T06:24:05;100437.03;;;23.52;79.13
72558;BME280;60583;50.094;8.748;2023-06-22T06:26:30;100433.53;;;23.46;78.19
72558;BME280;60583;50.094;8.748;2023-06-22T06:28:59;100428.28;;;23.60;78.05
72558;BME280;60583;50.094;8.748;2023-06-22T06:31:24;100438.16;;;23.85;78.31
72558;BME280;60583;50.094;8.748;2023-06-22T06:33:52;100438.72;;;23.82;78.29
72558;BME280;60583;50.094;8.748;2023-06-22T06:36:19;100433.38;;;24.05;78.14
72558;BME280;60583;50.094;8.748;2023-06-22T06:38:45;100432.69;;;24.24;77.24
72558;BME280;60583;50.094;8.748;2023-06-22T06:41:15;100435.53;;;24.37;77.07
72558;BME280;60583;50.094;8.748;2023-06-22T06:43:41;100410.09;;;24.18;76.86
72558;BME280;60583;50.094;8.748;2023-06-22T06:46:08;100426.91;;;24.54;75.87
72558;BME280;60583;50.094;8.748;2023-06-22T06:48:34;100417.38;;;24.28;75.60
72558;BME280;60583;50.094;8.748;2023-06-22T06:50:59;100434.78;;;24.55;74.59
72558;BME280;60583;50.094;8.748;2023-06-22T06:53:25;100435.13;;;24.78;74.48
72558;BME280;60583;50.094;8.748;2023-06-22T06:55:50;100423.50;;;24.67;75.33
72558;BME280;60583;50.094;8.748;2023-06-22T06:58:15;100408.59;;;24.83;74.42
72558;BME280;60583;50.094;8.748;2023-06-22T07:00:41;100421.25;;;25.16;73.49
72558;BME280;60583;50.094;8.748;2023-06-22T07:03:08;100407.59;;;25.16;72.83
72558;BME280;60583;50.094;8.748;2023-06-22T07:05:34;100418.75;;;25.38;72.62
72558;BME280;60583;50.094;8.748;2023-06-22T07:08:00;100416.53;;;25.41;71.74
72558;BME280;60583;50.094;8.748;2023-06-22T07:10:26;100427.06;;;25.52;71.15
72558;BME280;60583;50.094;8.748;2023-06-22T07:12:52;100416.78;;;25.63;70.76
72558;BME280;60583;50.094;8.748;2023-06-22T07:15:17;100424.81;;;25.73;70.27
72558;BME280;60583;50.094;8.748;2023-06-22T07:17:43;100421.28;;;25.72;71.00
72558;BME280;60583;50.094;8.748;2023-06-22T07:20:09;100410.34;;;25.54;71.26
72558;BME280;60583;50.094;8.748;2023-06-22T07:22:36;100406.72;;;25.58;71.14
72558;BME280;60583;50.094;8.748;2023-06-22T07:25:03;100393.66;;;24.99;71.66
72558;BME280;60583;50.094;8.748;2023-06-22T07:27:38;100409.00;;;25.14;73.01
72558;BME280;60583;50.094;8.748;2023-06-22T07:30:08;100399.81;;;25.47;71.61
72558;BME280;60583;50.094;8.748;2023-06-22T07:32:34;100387.69;;;25.53;71.30
72558;BME280;60583;50.094;8.748;2023-06-22T07:35:00;100403.47;;;25.75;70.98
72558;BME280;60583;50.094;8.748;2023-06-22T07:37:27;100401.56;;;25.57;70.82
72558;BME280;60583;50.094;8.748;2023-06-22T07:39:53;100386.34;;;25.69;71.55
72558;BME280;60583;50.094;8.748;2023-06-22T07:42:26;100401.50;;;25.94;71.62
72558;BME280;60583;50.094;8.748;2023-06-22T07:44:52;100383.75;;;25.78;69.90
72558;BME280;60583;50.094;8.748;2023-06-22T07:47:17;100383.22;;;25.76;68.60
72558;BME280;60583;50.094;8.748;2023-06-22T07:49:45;100371.66;;;25.65;69.95
72558;BME280;60583;50.094;8.748;2023-06-22T07:52:10;100372.41;;;25.84;70.05
72558;BME280;60583;50.094;8.748;2023-06-22T07:54:36;100392.97;;;26.14;69.89
72558;BME280;60583;50.094;8.748;2023-06-22T07:57:01;100380.53;;;26.03;66.47
72558;BME280;60583;50.094;8.748;2023-06-22T07:59:27;100383.91;;;26.00;66.82
72558;BME280;60583;50.094;8.748;2023-06-22T08:01:53;100378.78;;;26.12;68.02
72558;BME280;60583;50.094;8.748;2023-06-22T08:04:18;100382.44;;;26.48;67.00
72558;BME280;60583;50.094;8.748;2023-06-22T08:06:44;100385.91;;;26.68;66.20
72558;BME280;60583;50.094;8.748;2023-06-22T08:09:09;100382.19;;;26.77;65.36
72558;BME280;60583;50.094;8.748;2023-06-22T08:11:34;100380.81;;;27.02;65.54
72558;BME280;60583;50.094;8.748;2023-06-22T08:14:00;100375.00;;;27.17;64.61
72558;BME280;60583;50.094;8.748;2023-06-22T08:16:25;100390.94;;;27.15;63.04
72558;BME280;60583;50.094;8.748;2023-06-22T08:18:51;100387.22;;;27.33;63.23
72558;BME280;60583;50.094;8.748;2023-06-22T08:21:16;100362.47;;;27.38;63.06
72558;BME280;60583;50.094;8.748;2023-06-22T08:23:42;100368.91;;;27.56;62.95
72558;BME280;60583;50.094;8.748;2023-06-22T08:26:07;100372.56;;;27.73;62.45
72558;BME280;60583;50.094;8.748;2023-06-22T08:28:32;100354.44;;;27.42;62.26
72558;BME280;60583;50.094;8.748;2023-06-22T08:30:59;100356.47;;;27.36;61.88
72558;BME280;60583;50.094;8.748;2023-06-22T08:33:25;100342.13;;;27.53;61.45
72558;BME280;60583;50.094;8.748;2023-06-22T08:35:54;100332.84;;;27.62;61.29
72558;BME280;60583;50.094;8.748;2023-06-22T08:38:20;100352.53;;;27.95;61.34
72558;BME280;60583;50.094;8.748;2023-06-22T08:40:45;100353.16;;;28.14;60.26
72558;BME280;60583;50.094;8.748;2023-06-22T08:43:11;100341.09;;;27.93;61.90
72558;BME280;60583;50.094;8.748;2023-06-22T08:45:36;100330.94;;;27.94;61.20
72558;BME280;60583;50.094;8.748;2023-06-22T08:48:02;100331.56;;;28.21;60.31
72558;BME280;60583;50.094;8.748;2023-06-22T08:50:27;100337.13;;;28.38;61.41
72558;BME280;60583;50.094;8.748;2023-06-22T08:52:52;100336.31;;;28.38;58.65
72558;BME280;60583;50.094;8.748;2023-06-22T08:55:18;100321.47;;;28.47;59.26
72558;BME280;60583;50.094;8.748;2023-06-22T08:57:43;100310.97;;;28.41;58.98
72558;BME280;60583;50.094;8.748;2023-06-22T09:00:09;100320.94;;;28.76;56.80
72558;BME280;60583;50.094;8.748;2023-06-22T09:02:46;100314.16;;;28.82;55.41
72558;BME280;60583;50.094;8.748;2023-06-22T09:05:12;100316.44;;;29.15;56.23
72558;BME280;60583;50.094;8.748;2023-06-22T09:07:37;100321.78;;;29.37;57.19
72558;BME280;60583;50.094;8.748;2023-06-22T09:10:03;100306.91;;;29.29;55.50
72558;BME280;60583;50.094;8.748;2023-06-22T09:12:30;100331.66;;;29.38;54.18
72558;BME280;60583;50.094;8.748;2023-06-22T09:14:56;100326.94;;;29.55;53.42
72558;BME280;60583;50.094;8.748;2023-06-22T09:17:22;100330.28;;;29.87;54.54
72558;BME280;60583;50.094;8.748;2023-06-22T09:19:47;100323.69;;;29.62;52.08
72558;BME280;60583;50.094;8.748;2023-06-22T09:22:14;100316.09;;;29.67;53.60
72558;BME280;60583;50.094;8.748;2023-06-22T09:24:39;100308.94;;;29.75;52.82
72558;BME280;60583;50.094;8.748;2023-06-22T09:27:05;100296.34;;;29.83;52.91
72558;BME280;60583;50.094;8.748;2023-06-22T09:29:30;100306.50;;;29.91;53.18
72558;BME280;60583;50.094;8.748;2023-06-22T09:31:59;100293.81;;;30.07;52.55
72558;BME280;60583;50.094;8.748;2023-06-22T09:34:24;100307.38;;;30.50;50.09
72558;BME280;60583;50.094;8.748;2023-06-22T09:36:50;100293.69;;;30.32;47.91
72558;BME280;60583;50.094;8.748;2023-06-22T09:39:15;100281.19;;;30.44;47.30
72558;BME280;60583;50.094;8.748;2023-06-22T09:41:40;100316.41;;;30.59;46.98
72558;BME280;60583;50.094;8.748;2023-06-22T09:44:06;100289.25;;;30.49;46.53
72558;BME280;60583;50.094;8.748;2023-06-22T09:46:31;100284.78;;;30.36;46.32
72558;BME280;60583;50.094;8.748;2023-06-22T09:48:57;100262.69;;;30.15;47.78
72558;BME280;60583;50.094;8.748;2023-06-22T09:51:22;100274.59;;;30.36;46.10
72558;BME280;60583;50.094;8.748;2023-06-22T09:53:49;100277.75;;;30.47;46.92
72558;BME280;60583;50.094;8.748;2023-06-22T09:56:15;100254.63;;;30.68;46.31
72558;BME280;60583;50.094;8.748;2023-06-22T09:58:42;100281.66;;;30.96;44.96
72558;BME280;60583;50.094;8.748;2023-06-22T10:01:08;100274.91;;;31.05;44.84
72558;BME280;60583;50.094;8.748;2023-06-22T10:03:33;100285.53;;;30.74;45.25
72558;BME280;60583;50.094;8.748;2023-06-22T10:05:58;100269.91;;;30.57;45.62
72558;BME280;60583;50.094;8.748;2023-06-22T10:08:24;100277.84;;;30.79;45.59
72558;BME280;60583;50.094;8.748;2023-06-22T10:10:49;100278.41;;;30.73;45.16
72558;BME280;60583;50.094;8.748;2023-06-22T10:13:15;100238.22;;;30.72;45.35
72558;BME280;60583;50.094;8.748;2023-06-22T10:15:41;100259.16;;;30.93;44.27
72558;BME280;60583;50.094;8.748;2023-06-22T10:18:07;100247.81;;;31.40;43.63
72558;BME280;60583;50.094;8.748;2023-06-22T10:20:32;100243.56;;;31.42;43.82
72558;BME280;60583;50.094;8.748;2023-06-22T10:22:58;100245.50;;;31.42;43.47
72558;BME280;60583;50.094;8.748;2023-06-22T10:25:24;100240.56;;;31.35;43.35
72558;BME280;60583;50.094;8.748;2023-06-22T10:27:49;100234.84;;;31.40;43.25
72558;BME280;60583;50.094;8.748;2023-06-22T10:30:15;100210.09;;;31.65;43.08
72558;BME280;60583;50.094;8.748;2023-06-22T10:32:42;100218.63;;;32.08;42.58
72558;BME280;60583;50.094;8.748;2023-06-22T10:35:09;100207.13;;;32.18;41.04
72558;BME280;60583;50.094;8.748;2023-06-22T10:37:36;100210.69;;;32.18;41.63
72558;BME280;60583;50.094;8.748;2023-06-22T10:40:01;100212.63;;;32.42;41.60
72558;BME280;60583;50.094;8.748;2023-06-22T10:42:27;100201.69;;;32.34;41.35
72558;BME280;60583;50.094;8.748;2023-06-22T10:44:52;100196.25;;;32.49;41.45
72558;BME280;60583;50.094;8.748;2023-06-22T10:47:18;100167.94;;;32.64;40.87
72558;BME280;60583;50.094;8.748;2023-06-22T10:49:43;100187.78;;;32.82;39.37
72558;BME280;60583;50.094;8.748;2023-06-22T10:52:09;100170.88;;;32.99;39.21
72558;BME280;60583;50.094;8.748;2023-06-22T10:54:35;100174.78;;;33.10;39.55
72558;BME280;60583;50.094;8.748;2023-06-22T10:57:01;100155.69;;;33.21;39.40
72558;BME280;60583;50.094;8.748;2023-06-22T10:59:27;100144.88;;;33.16;39.33
72558;BME280;60583;50.094;8.748;2023-06-22T11:01:54;100150.06;;;33.49;39.13
72558;BME280;60583;50.094;8.748;2023-06-22T11:04:20;100144.00;;;33.12;39.91
72558;BME280;60583;50.094;8.748;2023-06-22T11:06:45;100153.31;;;33.35;39.26
72558;BME280;60583;50.094;8.748;2023-06-22T11:09:11;100148.09;;;33.33;39.36
72558;BME280;60583;50.094;8.748;2023-06-22T11:11:36;100139.38;;;33.31;40.21
72558;BME280;60583;50.094;8.748;2023-06-22T11:14:02;100130.91;;;33.71;39.38
72558;BME280;60583;50.094;8.748;2023-06-22T11:16:28;100130.03;;;33.67;38.95
72558;BME280;60583;50.094;8.748;2023-06-22T11:18:53;100141.38;;;34.13;38.06
72558;BME280;60583;50.094;8.748;2023-06-22T11:21:19;100114.75;;;33.73;38.60
72558;BME280;60583;50.094;8.748;2023-06-22T11:23:45;100098.75;;;33.51;39.27
72558;BME280;60583;50.094;8.748;2023-06-22T11:26:10;100114.13;;;33.49;39.31
72558;BME280;60583;50.094;8.748;2023-06-22T11:28:36;100103.00;;;33.61;39.08
72558;BME280;60583;50.094;8.748;2023-06-22T11:31:01;100102.34;;;34.02;38.62
72558;BME280;60583;50.094;8.748;2023-06-22T11:33:27;100091.91;;;34.11;38.45
72558;BME280;60583;50.094;8.748;2023-06-22T11:35:52;100079.81;;;34.19;37.80
72558;BME280;60583;50.094;8.748;2023-06-22T11:38:17;100071.00;;;34.14;37.89
72558;BME280;60583;50.094;8.748;2023-06-22T11:40:43;100100.25;;;33.95;39.22
72558;BME280;60583;50.094;8.748;2023-06-22T11:43:08;100084.50;;;33.49;38.87
72558;BME280;60583;50.094;8.748;2023-06-22T11:45:33;100109.22;;;33.73;38.93
72558;BME280;60583;50.094;8.748;2023-06-22T11:47:59;100074.13;;;33.46;39.40
72558;BME280;60583;50.094;8.748;2023-06-22T11:50:24;100080.22;;;33.36;39.48
72558;BME280;60583;50.094;8.748;2023-06-22T11:52:50;100079.34;;;33.16;39.70
72558;BME280;60583;50.094;8.748;2023-06-22T11:55:15;100082.53;;;33.18;39.79
72558;BME280;60583;50.094;8.748;2023-06-22T11:57:54;100076.47;;;33.28;39.55
72558;BME280;60583;50.094;8.748;2023-06-22T12:00:20;100098.53;;;33.40;39.78
72558;BME280;60583;50.094;8.748;2023-06-22T12:02:46;100067.41;;;33.12;40.28
72558;BME280;60583;50.094;8.748;2023-06-22T12:05:11;100050.66;;;32.93;40.70
72558;BME280;60583;50.094;8.748;2023-06-22T12:07:37;100057.06;;;33.25;39.56
72558;BME280;60583;50.094;8.748;2023-06-22T12:10:03;100055.38;;;33.20;39.88
72558;BME280;60583;50.094;8.748;2023-06-22T12:12:29;100066.88;;;33.22;40.38
72558;BME280;60583;50.094;8.748;2023-06-22T12:14:54;100056.84;;;33.02;39.98
72558;BME280;60583;50.094;8.748;2023-06-22T12:17:20;100063.72;;;32.93;40.54
72558;BME280;60583;50.094;8.748;2023-06-22T12:19:45;100037.50;;;33.02;40.87
72558;BME280;60583;50.094;8.748;2023-06-22T12:22:10;100039.56;;;33.21;40.83
72558;BME280;60583;50.094;8.748;2023-06-22T12:24:36;100055.13;;;32.82;41.52
72558;BME280;60583;50.094;8.748;2023-06-22T12:27:01;100055.53;;;33.27;40.56
72558;BME280;60583;50.094;8.748;2023-06-22T12:29:28;100038.56;;;33.29;40.59
72558;BME280;60583;50.094;8.748;2023-06-22T12:31:54;100042.16;;;33.14;40.38
72558;BME280;60583;50.094;8.748;2023-06-22T12:34:19;100033.41;;;33.12;39.58
72558;BME280;60583;50.094;8.748;2023-06-22T12:36:44;100026.78;;;32.85;40.66
72558;BME280;60583;50.094;8.748;2023-06-22T12:39:12;100044.63;;;32.44;41.32
72558;BME280;60583;50.094;8.748;2023-06-22T12:41:38;100045.44;;;32.05;42.05
72558;BME280;60583;50.094;8.748;2023-06-22T12:44:03;100032.97;;;32.23;41.30
72558;BME280;60583;50.094;8.748;2023-06-22T12:46:28;100036.84;;;32.34;42.02
72558;BME280;60583;50.094;8.748;2023-06-22T12:48:56;100019.34;;;32.30;41.72